Time;durP1;ratioP1;P1;durP2;ratioP2;P2;SDS_P1;SDS_P2;PMS_P1;PMS_P2;Temp;Humidity;BMP_temperature;BMP_pressure;BME280_temperature;BME280_humidity;BME280_pressure;Samples;Min_cycle;Max_cycle;Signal;HPM_P1;HPM_P2
2023/04/13 00:00:15;;;;;;;4.90;1.88;;;9.50;99.90;;;;;;4973587;28;20059;-87
2023/04/13 00:02:42;;;;;;;4.65;1.58;;;9.40;99.90;;;;;;4973701;28;20035;-86
2023/04/13 00:05:09;;;;;;;5.18;1.55;;;9.30;99.90;;;;;;4973361;28;20093;-86
2023/04/13 00:07:38;;;;;;;4.10;1.38;;;9.20;99.90;;;;;;4973591;28;20054;-87
2023/04/13 00:10:09;;;;;;;3.38;1.40;;;9.20;99.90;;;;;;4973501;28;20035;-86
2023/04/13 00:12:41;;;;;;;5.43;1.50;;;9.00;99.90;;;;;;4973464;28;20472;-86
2023/04/13 00:15:08;;;;;;;4.35;1.33;;;9.00;99.90;;;;;;4973776;28;20034;-86
2023/04/13 00:17:34;;;;;;;4.40;1.00;;;8.90;99.90;;;;;;4973646;28;20027;-86
2023/04/13 00:20:00;;;;;;;3.35;1.13;;;8.80;99.90;;;;;;4973437;28;20115;-86
2023/04/13 00:22:29;;;;;;;3.00;1.25;;;9.10;99.90;;;;;;4962556;28;20020;-86
2023/04/13 00:24:56;;;;;;;5.18;1.30;;;8.80;99.90;;;;;;4954259;29;20043;-86
2023/04/13 00:27:26;;;;;;;7.13;1.73;;;8.60;99.90;;;;;;4954408;28;20039;-86
2023/04/13 00:29:55;;;;;;;5.00;1.35;;;8.70;99.90;;;;;;4954009;29;20039;-86
2023/04/13 00:32:21;;;;;;;4.00;1.25;;;8.60;99.90;;;;;;4954190;29;20516;-86
2023/04/13 00:34:46;;;;;;;4.28;1.23;;;8.60;99.90;;;;;;4952795;29;20020;-86
2023/04/13 00:37:13;;;;;;;11.90;1.50;;;8.60;99.90;;;;;;4954037;29;20031;-86
2023/04/13 00:39:42;;;;;;;3.13;1.13;;;8.40;99.90;;;;;;4953938;29;20085;-86
2023/04/13 00:42:08;;;;;;;4.65;1.17;;;8.30;99.90;;;;;;4953918;29;20114;-86
2023/04/13 00:44:35;;;;;;;7.05;1.23;;;8.40;99.90;;;;;;4954135;29;20134;-86
2023/04/13 00:47:04;;;;;;;4.43;1.33;;;8.40;99.90;;;;;;4969934;28;20031;-86
2023/04/13 00:49:34;;;;;;;4.22;1.10;;;8.30;99.90;;;;;;4973108;28;20031;-86
2023/04/13 00:52:01;;;;;;;5.93;1.33;;;8.30;99.90;;;;;;4972644;28;20030;-86
2023/04/13 00:54:28;;;;;;;6.10;1.15;;;8.30;99.90;;;;;;4972965;28;20499;-86
2023/04/13 00:56:54;;;;;;;4.53;1.02;;;8.30;99.90;;;;;;4973232;28;20027;-87
2023/04/13 00:59:21;;;;;;;5.00;1.33;;;8.30;99.90;;;;;;4972831;28;20027;-85
2023/04/13 01:01:49;;;;;;;5.82;1.42;;;8.20;99.90;;;;;;4973414;28;20086;-86
2023/04/13 01:04:18;;;;;;;4.07;0.88;;;8.20;99.90;;;;;;4972879;28;20062;-86
2023/04/13 01:06:55;;;;;;;7.07;1.20;;;8.50;99.90;;;;;;4972214;28;20170;-86
2023/04/13 01:09:39;;;;;;;4.60;1.20;;;8.10;99.90;;;;;;4972594;28;20034;-86
2023/04/13 01:12:16;;;;;;;4.93;1.48;;;8.20;99.90;;;;;;4972771;28;20031;-86
2023/04/13 01:14:56;;;;;;;5.85;1.48;;;8.10;99.90;;;;;;4972925;28;20161;-86
2023/04/13 01:17:27;;;;;;;6.57;1.25;;;8.20;99.90;;;;;;4972915;28;20026;-86
2023/04/13 01:20:00;;;;;;;6.18;1.30;;;8.10;99.90;;;;;;4972446;28;20395;-86
2023/04/13 01:22:29;;;;;;;4.40;1.20;;;7.90;99.90;;;;;;4964571;28;20551;-86
2023/04/13 01:25:16;;;;;;;4.07;1.02;;;8.10;99.90;;;;;;4953272;28;20062;-87
2023/04/13 01:27:51;;;;;;;3.55;1.00;;;7.90;99.90;;;;;;4953909;28;20050;-87
2023/04/13 01:30:22;;;;;;;5.95;1.20;;;7.80;99.90;;;;;;4953542;29;20067;-85
2023/04/13 01:32:50;;;;;;;3.40;1.10;;;7.70;99.90;;;;;;4954010;28;20060;-86
2023/04/13 01:35:18;;;;;;;5.78;1.00;;;7.70;99.90;;;;;;4956486;29;20510;-87
2023/04/13 01:37:44;;;;;;;6.68;1.20;;;7.80;99.90;;;;;;4957163;29;20038;-86
2023/04/13 01:40:11;;;;;;;3.10;0.90;;;7.60;99.90;;;;;;4957022;29;20030;-86
2023/04/13 01:42:41;;;;;;;2.65;1.00;;;7.60;99.90;;;;;;4956849;29;20114;-86
2023/04/13 01:45:20;;;;;;;2.90;1.10;;;7.60;99.90;;;;;;4957562;28;20035;-86
2023/04/13 01:48:03;;;;;;;5.43;1.25;;;7.60;99.90;;;;;;4976003;28;20018;-88
2023/04/13 01:50:34;;;;;;;6.53;1.23;;;7.50;99.90;;;;;;4975440;28;20031;-87
2023/04/13 01:53:06;;;;;;;4.35;1.15;;;7.60;99.90;;;;;;4974595;28;20411;-85
2023/04/13 01:55:37;;;;;;;7.13;1.10;;;7.50;99.90;;;;;;4976384;28;20039;-86
2023/04/13 01:58:04;;;;;;;4.10;1.05;;;7.40;99.90;;;;;;4975740;28;20076;-86
2023/04/13 02:00:36;;;;;;;5.30;1.17;;;7.30;99.90;;;;;;4975813;28;20126;-86
2023/04/13 02:03:08;;;;;;;3.17;1.10;;;7.30;99.90;;;;;;4975769;28;20078;-86
2023/04/13 02:05:39;;;;;;;6.43;1.10;;;7.30;99.90;;;;;;4975345;28;20122;-86
2023/04/13 02:08:06;;;;;;;2.55;0.93;;;7.20;99.90;;;;;;4975731;28;20023;-86
2023/04/13 02:10:33;;;;;;;3.38;1.00;;;7.20;99.90;;;;;;4975717;28;20027;-86
2023/04/13 02:13:00;;;;;;;7.43;1.17;;;7.10;99.90;;;;;;4975595;28;20022;-86
2023/04/13 02:15:25;;;;;;;6.18;1.17;;;7.50;99.90;;;;;;4975680;28;20097;-86
2023/04/13 02:17:52;;;;;;;4.35;1.27;;;7.20;99.90;;;;;;4975092;28;20479;-87
2023/04/13 02:20:18;;;;;;;4.45;1.30;;;7.10;99.90;;;;;;4975907;28;20030;-86
2023/04/13 02:22:44;;;;;;;5.47;1.40;;;7.00;99.90;;;;;;4974159;28;20030;-86
2023/04/13 02:25:11;;;;;;;5.22;1.38;;;7.00;99.90;;;;;;4956082;29;20039;-86
2023/04/13 02:27:38;;;;;;;6.47;1.30;;;7.20;99.90;;;;;;4956196;29;20031;-86
2023/04/13 02:30:05;;;;;;;2.80;1.30;;;7.20;99.90;;;;;;4955982;29;20023;-86
2023/04/13 02:32:31;;;;;;;5.57;1.40;;;6.90;99.90;;;;;;4955831;29;20031;-85
2023/04/13 02:34:58;;;;;;;3.08;1.45;;;7.00;99.90;;;;;;4955969;29;20023;-86
2023/04/13 02:37:24;;;;;;;4.75;1.48;;;7.00;99.90;;;;;;4955961;29;20031;-86
2023/04/13 02:39:50;;;;;;;4.65;1.42;;;6.80;99.90;;;;;;4955985;29;20023;-87
2023/04/13 02:42:16;;;;;;;6.78;1.85;;;6.80;99.90;;;;;;4956078;29;20086;-87
2023/04/13 02:44:42;;;;;;;6.03;1.73;;;7.00;99.90;;;;;;4955430;28;20488;-86
2023/04/13 02:47:08;;;;;;;5.00;1.75;;;6.90;99.90;;;;;;4972357;28;20162;-85
2023/04/13 02:49:34;;;;;;;4.60;1.35;;;6.80;99.90;;;;;;4974839;28;20042;-86
2023/04/13 02:52:00;;;;;;;4.75;1.70;;;6.80;99.90;;;;;;4975082;28;20095;-86
2023/04/13 02:54:26;;;;;;;4.40;1.60;;;6.60;99.90;;;;;;4975279;28;20022;-86
2023/04/13 02:56:51;;;;;;;3.67;1.52;;;6.40;99.90;;;;;;4975009;28;20423;-86
2023/04/13 02:59:17;;;;;;;5.10;1.63;;;6.40;99.90;;;;;;4974544;28;20035;-86
2023/04/13 03:01:44;;;;;;;5.65;1.58;;;6.40;99.90;;;;;;4974292;28;20044;-86
2023/04/13 03:04:10;;;;;;;4.93;1.52;;;6.40;99.90;;;;;;4974582;28;20038;-86
2023/04/13 03:06:36;;;;;;;4.18;1.60;;;6.70;99.90;;;;;;4974651;28;20373;-87
2023/04/13 03:09:02;;;;;;;5.88;1.75;;;6.40;99.90;;;;;;4974682;28;20074;-86
2023/04/13 03:11:28;;;;;;;8.57;2.13;;;6.60;99.90;;;;;;4974673;28;20062;-86
2023/04/13 03:13:56;;;;;;;6.60;1.75;;;6.50;99.90;;;;;;4974784;28;20066;-85
2023/04/13 03:16:23;;;;;;;3.53;1.60;;;6.70;99.90;;;;;;4974203;28;20400;-86
2023/04/13 03:18:50;;;;;;;4.53;1.40;;;6.60;99.90;;;;;;4974521;28;20035;-86
2023/04/13 03:21:16;;;;;;;3.17;1.80;;;6.70;99.90;;;;;;4974303;28;20523;-87
2023/04/13 03:23:42;;;;;;;4.88;1.60;;;6.80;99.90;;;;;;4970876;28;20051;-86
2023/04/13 03:26:08;;;;;;;5.43;1.85;;;6.90;99.90;;;;;;4955061;29;20089;-86
2023/04/13 03:28:33;;;;;;;5.40;1.48;;;6.90;99.90;;;;;;4954905;29;20510;-86
2023/04/13 03:30:59;;;;;;;3.38;1.88;;;6.90;99.90;;;;;;4954887;29;20388;-86
2023/04/13 03:33:24;;;;;;;4.78;1.75;;;6.80;99.90;;;;;;4954998;29;20034;-86
2023/04/13 03:35:50;;;;;;;4.82;1.48;;;6.80;99.90;;;;;;4954754;29;20504;-86
2023/04/13 03:38:16;;;;;;;3.75;1.63;;;6.70;99.90;;;;;;4954829;29;20027;-86
2023/04/13 03:40:41;;;;;;;3.88;1.67;;;6.70;99.90;;;;;;4954855;29;20522;-86
2023/04/13 03:43:07;;;;;;;5.60;1.60;;;7.00;99.90;;;;;;4953673;29;20432;-86
2023/04/13 03:45:33;;;;;;;4.45;2.53;;;6.90;99.90;;;;;;4958981;28;20031;-87
2023/04/13 03:47:59;;;;;;;4.07;1.70;;;6.50;99.90;;;;;;4973913;28;20522;-86
2023/04/13 03:50:24;;;;;;;2.97;1.50;;;6.80;99.90;;;;;;4973866;28;20034;-86
2023/04/13 03:52:50;;;;;;;5.60;1.63;;;6.80;99.90;;;;;;4974093;28;20364;-86
2023/04/13 03:55:16;;;;;;;5.60;1.77;;;6.50;99.90;;;;;;4973600;28;20098;-86
2023/04/13 03:57:42;;;;;;;6.97;1.70;;;6.40;99.90;;;;;;4973588;28;20030;-86
2023/04/13 04:00:12;;;;;;;4.35;1.60;;;7.00;99.90;;;;;;4973151;28;20583;-86
2023/04/13 04:02:39;;;;;;;3.22;1.50;;;6.60;99.90;;;;;;4973755;28;20031;-86
2023/04/13 04:05:04;;;;;;;4.07;1.88;;;6.80;99.90;;;;;;4973494;28;20031;-86
2023/04/13 04:07:30;;;;;;;5.63;1.40;;;6.60;99.90;;;;;;4974070;28;20042;-86
2023/04/13 04:09:56;;;;;;;4.97;1.55;;;6.90;99.90;;;;;;4972364;28;20049;-86
2023/04/13 04:12:21;;;;;;;3.53;1.90;;;6.40;99.90;;;;;;4973704;28;20022;-86
2023/04/13 04:14:47;;;;;;;5.68;1.58;;;6.20;99.90;;;;;;4973133;28;20022;-85
2023/04/13 04:17:12;;;;;;;4.88;1.63;;;6.50;99.90;;;;;;4973581;28;20023;-86
2023/04/13 04:19:38;;;;;;;5.45;2.22;;;6.50;99.90;;;;;;4973599;28;20039;-85
2023/04/13 04:22:05;;;;;;;5.13;1.77;;;6.40;99.90;;;;;;4973401;28;20033;-86
2023/04/13 04:24:32;;;;;;;6.55;2.13;;;6.60;99.90;;;;;;4969799;28;20035;-86
2023/04/13 04:26:59;;;;;;;5.38;2.05;;;6.30;99.90;;;;;;4954352;29;20027;-86
2023/04/13 04:29:32;;;;;;;3.75;1.73;;;6.30;99.90;;;;;;4953640;29;20031;-86
2023/04/13 04:31:59;;;;;;;5.63;2.10;;;6.20;99.90;;;;;;4953960;29;20122;-86
2023/04/13 04:34:25;;;;;;;8.48;2.13;;;6.30;99.90;;;;;;4954164;29;20083;-86
2023/04/13 04:36:51;;;;;;;4.47;1.50;;;6.20;99.90;;;;;;4954089;29;20436;-86
2023/04/13 04:39:25;;;;;;;5.70;1.85;;;6.20;99.90;;;;;;4954277;29;20032;-86
2023/04/13 04:42:01;;;;;;;5.30;1.83;;;6.50;99.90;;;;;;4953233;29;20032;-86
2023/04/13 04:44:29;;;;;;;6.05;1.83;;;6.30;99.90;;;;;;4952775;29;20537;-86
2023/04/13 04:46:55;;;;;;;8.40;1.90;;;6.60;99.90;;;;;;4968963;28;20038;-86
2023/04/13 04:49:21;;;;;;;8.18;1.77;;;6.30;99.90;;;;;;4973327;28;20435;-86
2023/04/13 04:51:51;;;;;;;6.05;2.22;;;6.70;99.90;;;;;;4973083;28;20027;-86
2023/04/13 04:54:18;;;;;;;6.03;2.05;;;6.50;99.90;;;;;;4973156;28;20529;-86
2023/04/13 04:56:44;;;;;;;6.95;1.85;;;6.70;99.90;;;;;;4973383;28;20035;-85
2023/04/13 04:59:10;;;;;;;9.55;2.13;;;6.60;99.90;;;;;;4972637;28;20026;-86
2023/04/13 05:01:37;;;;;;;4.35;1.77;;;6.60;99.90;;;;;;4972532;28;20050;-86
2023/04/13 05:04:03;;;;;;;7.10;2.40;;;6.60;99.90;;;;;;4972797;28;20046;-86
2023/04/13 05:06:32;;;;;;;3.63;1.55;;;6.50;99.90;;;;;;4972890;28;20437;-87
2023/04/13 05:09:05;;;;;;;6.53;1.95;;;6.40;99.90;;;;;;4975232;28;20034;-86
2023/04/13 05:11:31;;;;;;;5.68;2.03;;;6.40;99.90;;;;;;4976666;28;20043;-86
2023/04/13 05:13:57;;;;;;;6.28;1.90;;;6.50;99.90;;;;;;4976306;28;20038;-87
2023/04/13 05:16:23;;;;;;;7.70;2.00;;;6.90;99.90;;;;;;4976737;28;20034;-87
2023/04/13 05:18:49;;;;;;;5.45;1.90;;;6.70;99.90;;;;;;4977055;28;20499;-85
2023/04/13 05:21:15;;;;;;;5.13;2.08;;;6.60;99.90;;;;;;4976556;28;20031;-86
2023/04/13 05:23:41;;;;;;;6.22;2.10;;;7.00;99.90;;;;;;4976352;28;20158;-86
2023/04/13 05:26:11;;;;;;;6.13;2.20;;;6.70;99.90;;;;;;4964285;28;20515;-86
2023/04/13 05:28:40;;;;;;;4.57;1.90;;;6.80;99.90;;;;;;4957556;29;20051;-86
2023/04/13 05:31:07;;;;;;;4.22;1.50;;;6.80;99.90;;;;;;4956898;29;20055;-86
2023/04/13 05:33:33;;;;;;;8.27;1.92;;;6.80;99.90;;;;;;4957022;29;20023;-86
2023/04/13 05:35:59;;;;;;;6.63;2.17;;;6.80;99.90;;;;;;4957147;29;20496;-86
2023/04/13 05:38:25;;;;;;;4.35;2.30;;;7.10;99.90;;;;;;4956936;29;20034;-86
2023/04/13 05:40:52;;;;;;;5.57;2.15;;;6.90;99.90;;;;;;4956534;29;20027;-86
2023/04/13 05:43:18;;;;;;;4.13;1.65;;;6.80;99.90;;;;;;4956733;29;20031;-86
2023/04/13 05:45:44;;;;;;;7.00;2.05;;;6.90;99.90;;;;;;4964292;28;20042;-87
2023/04/13 05:48:10;;;;;;;6.93;2.13;;;7.00;99.90;;;;;;4976080;28;20484;-86
2023/04/13 05:50:37;;;;;;;4.05;1.88;;;7.00;99.90;;;;;;4976141;28;20068;-86
2023/04/13 05:53:04;;;;;;;8.48;2.13;;;7.50;99.90;;;;;;4975852;28;20026;-86
2023/04/13 05:55:31;;;;;;;4.88;2.30;;;7.30;99.90;;;;;;4975485;28;20035;-86
2023/04/13 05:57:56;;;;;;;7.47;2.30;;;7.10;99.90;;;;;;4976234;28;20542;-87
2023/04/13 06:00:22;;;;;;;6.07;2.38;;;7.50;99.90;;;;;;4975687;28;20133;-87
2023/04/13 06:02:49;;;;;;;5.80;2.33;;;7.40;99.90;;;;;;4975880;28;20077;-86
2023/04/13 06:05:15;;;;;;;8.30;2.80;;;7.30;99.90;;;;;;4976257;28;20093;-89
2023/04/13 06:07:43;;;;;;;7.75;2.50;;;7.30;99.90;;;;;;4976853;28;20030;-91
2023/04/13 06:10:10;;;;;;;9.02;2.67;;;7.70;99.90;;;;;;4976040;28;20086;-94
2023/04/13 06:12:36;;;;;;;3.88;2.30;;;8.00;99.90;;;;;;4976455;28;20098;-87
2023/04/13 06:15:02;;;;;;;7.18;2.53;;;7.90;99.90;;;;;;4976786;28;20065;-93
2023/04/13 06:17:28;;;;;;;8.13;2.50;;;8.20;99.90;;;;;;4976806;28;20035;-92
2023/04/13 06:19:54;;;;;;;6.80;2.47;;;8.30;99.90;;;;;;4976495;28;20565;-91
2023/04/13 06:22:21;;;;;;;5.30;2.30;;;8.40;99.90;;;;;;4976961;28;20038;-93
2023/04/13 06:24:49;;;;;;;5.30;2.75;;;8.30;99.90;;;;;;4976829;28;20039;-93
2023/04/13 06:27:15;;;;;;;5.72;2.53;;;8.40;99.90;;;;;;4966908;28;20118;-92
2023/04/13 06:29:40;;;;;;;10.70;2.72;;;8.70;99.90;;;;;;4956517;29;20129;-91
2023/04/13 06:32:06;;;;;;;7.20;2.30;;;8.80;99.90;;;;;;4956549;29;20055;-92
2023/04/13 06:34:33;;;;;;;6.32;2.53;;;8.60;99.90;;;;;;4957590;29;20130;-92
2023/04/13 06:36:58;;;;;;;6.50;2.58;;;8.50;99.90;;;;;;4957536;29;20038;-93
2023/04/13 06:39:24;;;;;;;5.40;2.20;;;8.90;99.90;;;;;;4955903;29;20036;-93
2023/04/13 06:41:50;;;;;;;5.07;2.40;;;8.50;99.90;;;;;;4957168;28;20023;-92
2023/04/13 06:44:17;;;;;;;5.55;2.40;;;8.50;99.90;;;;;;4956253;29;20112;-93
2023/04/13 06:46:43;;;;;;;5.85;2.08;;;8.30;99.90;;;;;;4971219;28;20050;-92
2023/04/13 06:49:08;;;;;;;6.30;2.67;;;8.60;99.90;;;;;;4976869;28;20085;-92
2023/04/13 06:51:34;;;;;;;5.22;2.30;;;8.60;99.90;;;;;;4975553;28;20368;-92
2023/04/13 06:54:00;;;;;;;3.83;2.10;;;8.60;99.90;;;;;;4976396;28;20033;-93
2023/04/13 06:56:26;;;;;;;8.00;2.58;;;8.60;99.90;;;;;;4976570;28;20447;-92
2023/04/13 06:58:51;;;;;;;5.68;2.10;;;8.60;99.90;;;;;;4975478;28;20035;-92
2023/04/13 07:01:17;;;;;;;4.60;2.35;;;8.70;99.90;;;;;;4975310;28;20574;-92
2023/04/13 07:03:43;;;;;;;5.10;2.38;;;9.20;99.90;;;;;;4976476;28;20035;-93
2023/04/13 07:06:09;;;;;;;6.45;2.30;;;8.80;99.90;;;;;;4975120;28;20089;-92
2023/04/13 07:08:35;;;;;;;7.13;2.22;;;8.90;99.90;;;;;;4975850;28;20050;-92
2023/04/13 07:11:01;;;;;;;5.60;2.40;;;8.80;99.90;;;;;;4976209;28;20035;-92
2023/04/13 07:13:27;;;;;;;7.10;2.63;;;9.40;99.90;;;;;;4976021;28;20080;-92
2023/04/13 07:15:53;;;;;;;9.02;2.50;;;9.30;99.90;;;;;;4976017;28;20084;-92
2023/04/13 07:18:18;;;;;;;11.43;3.50;;;9.10;99.90;;;;;;4975546;28;20073;-92
2023/04/13 07:20:46;;;;;;;5.70;2.67;;;9.10;99.90;;;;;;4974969;28;20023;-92
2023/04/13 07:23:11;;;;;;;5.95;2.75;;;9.20;99.90;;;;;;4975446;28;20035;-91
2023/04/13 07:25:37;;;;;;;6.70;2.55;;;9.20;99.90;;;;;;4975921;28;20110;-92
2023/04/13 07:28:03;;;;;;;7.80;2.33;;;9.20;99.90;;;;;;4961669;28;20419;-92
2023/04/13 07:30:30;;;;;;;10.90;2.33;;;9.30;99.90;;;;;;4954910;28;20062;-92
2023/04/13 07:32:56;;;;;;;8.13;2.45;;;9.50;99.90;;;;;;4955454;29;20377;-92
2023/04/13 07:35:21;;;;;;;6.45;2.08;;;9.60;99.90;;;;;;4956520;29;20019;-92
2023/04/13 07:37:48;;;;;;;7.60;2.47;;;9.80;99.90;;;;;;4955622;28;20121;-92
2023/04/13 07:40:14;;;;;;;5.88;2.58;;;10.10;99.90;;;;;;4955432;29;20027;-93
2023/04/13 07:42:40;;;;;;;8.30;2.17;;;9.70;99.90;;;;;;4956292;29;20027;-92
2023/04/13 07:45:06;;;;;;;8.65;2.67;;;9.70;99.90;;;;;;4956131;28;20035;-92
2023/04/13 07:47:32;;;;;;;6.22;2.40;;;9.70;99.90;;;;;;4975643;28;20029;-93
2023/04/13 07:49:58;;;;;;;7.97;2.25;;;9.80;99.90;;;;;;4974189;28;20118;-92
2023/04/13 07:52:24;;;;;;;5.03;1.77;;;9.80;99.90;;;;;;4974236;28;20030;-92
2023/04/13 07:54:50;;;;;;;6.38;2.00;;;9.80;99.90;;;;;;4974037;28;20058;-92
2023/04/13 07:57:20;;;;;;;7.03;2.10;;;9.90;99.90;;;;;;4975255;28;20053;-92
2023/04/13 07:59:46;;;;;;;9.10;2.65;;;9.90;99.90;;;;;;4975596;28;20129;-92
2023/04/13 08:02:11;;;;;;;7.60;4.10;;;10.00;99.90;;;;;;4975459;28;20085;-91
2023/04/13 08:04:37;;;;;;;8.88;3.85;;;10.00;99.90;;;;;;4973748;28;20414;-92
2023/04/13 08:07:03;;;;;;;5.60;2.47;;;10.10;99.90;;;;;;4974706;28;20027;-92
2023/04/13 08:09:37;;;;;;;7.82;2.47;;;10.30;99.90;;;;;;4974870;28;20123;-92
2023/04/13 08:12:03;;;;;;;7.95;2.22;;;10.40;99.90;;;;;;4974064;28;20034;-92
2023/04/13 08:14:29;;;;;;;8.48;2.00;;;10.50;99.90;;;;;;4973810;28;20376;-92
2023/04/13 08:16:54;;;;;;;6.70;2.08;;;10.60;99.90;;;;;;4975257;28;20034;-92
2023/04/13 08:19:20;;;;;;;8.48;2.33;;;10.60;99.90;;;;;;4974970;28;20113;-92
2023/04/13 08:21:45;;;;;;;4.75;1.92;;;10.70;99.90;;;;;;4974499;28;20037;-92
2023/04/13 08:24:11;;;;;;;8.70;1.90;;;10.80;99.90;;;;;;4973705;28;20376;-92
2023/04/13 08:26:37;;;;;;;6.53;2.10;;;10.90;99.90;;;;;;4973661;28;20511;-92
2023/04/13 08:29:02;;;;;;;7.70;2.30;;;11.10;99.90;;;;;;4957696;28;20019;-92
2023/04/13 08:31:28;;;;;;;6.80;2.22;;;11.20;99.90;;;;;;4955649;29;20451;-93
2023/04/13 08:33:54;;;;;;;5.90;1.85;;;11.10;99.90;;;;;;4955573;29;20082;-92
2023/04/13 08:36:19;;;;;;;6.50;1.75;;;11.10;99.90;;;;;;4954079;29;20077;-90
2023/04/13 08:38:45;;;;;;;6.03;1.90;;;11.10;99.90;;;;;;4955407;29;20162;-91
2023/04/13 08:41:11;;;;;;;8.05;1.90;;;11.30;99.90;;;;;;4955576;29;20031;-90
2023/04/13 08:43:37;;;;;;;6.93;1.90;;;11.60;99.90;;;;;;4958219;28;20558;-90
2023/04/13 08:46:04;;;;;;;8.68;2.15;;;11.50;99.90;;;;;;4966759;28;20038;-90
2023/04/13 08:48:38;;;;;;;11.02;1.95;;;11.90;99.90;;;;;;4978815;28;20038;-92
2023/04/13 08:51:04;;;;;;;7.35;1.80;;;12.10;99.90;;;;;;4978083;28;20054;-91
2023/04/13 08:53:30;;;;;;;6.35;1.92;;;11.80;99.90;;;;;;4978392;28;20015;-93
2023/04/13 08:55:59;;;;;;;9.38;2.17;;;12.20;99.90;;;;;;4977123;28;20051;-92
2023/04/13 08:58:27;;;;;;;6.07;1.85;;;12.20;99.90;;;;;;4977686;28;20120;-93
2023/04/13 09:00:55;;;;;;;6.15;1.85;;;11.90;99.90;;;;;;4978509;28;20097;-92
2023/04/13 09:03:28;;;;;;;11.10;2.00;;;11.90;99.90;;;;;;4977202;28;20027;-92
2023/04/13 09:06:02;;;;;;;6.20;1.77;;;11.70;99.90;;;;;;4977075;28;20046;-93
2023/04/13 09:08:34;;;;;;;6.88;1.95;;;11.40;99.90;;;;;;4979484;28;20058;-92
2023/04/13 09:11:01;;;;;;;9.60;1.77;;;11.60;99.90;;;;;;4978423;28;20027;-92
2023/04/13 09:13:27;;;;;;;7.18;1.90;;;11.80;99.90;;;;;;4978375;28;20042;-92
2023/04/13 09:15:53;;;;;;;5.18;1.80;;;11.90;99.90;;;;;;4977154;28;20046;-92
2023/04/13 09:18:18;;;;;;;9.20;1.85;;;12.20;99.90;;;;;;4977213;28;20483;-92
2023/04/13 09:20:55;;;;;;;6.22;1.73;;;12.20;99.90;;;;;;4978368;28;20030;-92
2023/04/13 09:23:21;;;;;;;7.10;2.10;;;12.00;99.90;;;;;;4976905;28;20395;-92
2023/04/13 09:25:47;;;;;;;8.80;2.20;;;12.20;99.90;;;;;;4977606;28;20376;-92
2023/04/13 09:28:18;;;;;;;7.15;2.10;;;12.30;99.90;;;;;;4971372;28;20023;-92
2023/04/13 09:30:45;;;;;;;7.68;2.00;;;11.90;99.90;;;;;;4958909;29;20118;-92
2023/04/13 09:33:12;;;;;;;5.57;1.70;;;12.10;99.90;;;;;;4957866;29;20023;-92
2023/04/13 09:35:38;;;;;;;11.80;2.08;;;12.30;99.90;;;;;;4958457;29;20031;-91
2023/04/13 09:38:05;;;;;;;11.13;2.05;;;12.10;99.90;;;;;;4958460;29;20046;-92
2023/04/13 09:40:31;;;;;;;8.18;2.08;;;12.10;99.90;;;;;;4958508;29;20039;-92
2023/04/13 09:42:58;;;;;;;9.77;2.22;;;12.20;99.90;;;;;;4958075;29;20023;-92
2023/04/13 09:45:32;;;;;;;6.93;1.98;;;12.50;99.90;;;;;;4963370;28;20137;-93
2023/04/13 09:48:01;;;;;;;8.88;2.03;;;12.60;99.90;;;;;;4996941;28;20030;-92
2023/04/13 09:50:27;;;;;;;8.05;1.75;;;12.60;99.90;;;;;;4996960;28;20042;-92
2023/04/13 09:52:59;;;;;;;11.15;2.47;;;12.80;99.90;;;;;;4997737;28;20098;-92
2023/04/13 09:55:26;;;;;;;11.65;2.30;;;12.50;99.90;;;;;;4996526;28;20090;-92
2023/04/13 09:57:51;;;;;;;9.00;1.92;;;12.30;99.90;;;;;;4964689;28;20039;-92
2023/04/13 10:00:20;;;;;;;8.88;2.03;;;12.30;99.90;;;;;;4957711;28;20059;-92
2023/04/13 10:02:51;;;;;;;7.57;2.03;;;12.50;99.90;;;;;;4956948;29;20523;-92
2023/04/13 10:05:21;;;;;;;7.10;2.15;;;12.50;99.90;;;;;;4956504;29;20039;-93
2023/04/13 10:07:47;;;;;;;6.72;1.95;;;12.50;99.90;;;;;;4957767;28;20019;-91
2023/04/13 10:10:13;;;;;;;7.38;1.80;;;12.50;99.90;;;;;;4957938;28;20488;-92
2023/04/13 10:12:44;;;;;;;8.60;2.33;;;12.50;99.90;;;;;;4958175;28;20030;-92
2023/04/13 10:15:43;;;;;;;5.20;1.65;;;12.90;99.90;;;;;;4957580;28;20110;-93
2023/04/13 10:18:30;;;;;;;6.03;2.08;;;12.50;99.90;;;;;;4957537;29;20027;-91
2023/04/13 10:20:58;;;;;;;7.60;2.13;;;12.70;99.90;;;;;;4956505;29;20027;-92
2023/04/13 10:23:24;;;;;;;6.25;1.80;;;13.00;99.90;;;;;;4957269;28;20361;-92
2023/04/13 10:25:51;;;;;;;7.93;2.13;;;13.20;99.90;;;;;;4957520;28;20046;-93
2023/04/13 10:28:17;;;;;;;8.77;2.47;;;13.40;99.90;;;;;;4962497;28;20034;-91
2023/04/13 10:30:50;;;;;;;8.30;2.10;;;14.00;99.90;;;;;;4976610;28;20038;-91
2023/04/13 10:33:16;;;;;;;7.55;2.30;;;13.60;99.90;;;;;;4975810;28;20037;-91
2023/04/13 10:35:52;;;;;;;3.92;1.52;;;14.30;99.90;;;;;;4977249;28;20022;-91
2023/04/13 10:38:18;;;;;;;5.95;2.00;;;14.90;99.90;;;;;;4976504;28;20031;-91
2023/04/13 10:40:45;;;;;;;8.70;2.63;;;14.10;99.90;;;;;;4976900;28;20033;-91
2023/04/13 10:43:11;;;;;;;6.78;2.28;;;14.70;99.90;;;;;;4976609;28;20145;-91
2023/04/13 10:45:37;;;;;;;5.85;2.10;;;15.00;99.90;;;;;;4975794;28;20122;-91
2023/04/13 10:48:03;;;;;;;8.73;1.40;;;15.50;99.90;;;;;;4976354;28;20093;-91
2023/04/13 10:50:29;;;;;;;4.28;1.42;;;15.60;99.90;;;;;;4980272;28;20424;-92
2023/04/13 10:53:04;;;;;;;5.43;2.10;;;16.50;99.90;;;;;;4976429;28;20054;-91
2023/04/13 10:55:34;;;;;;;8.23;2.30;;;16.70;99.90;;;;;;4976456;28;20062;-91
2023/04/13 10:58:00;;;;;;;6.40;1.95;;;17.60;99.90;;;;;;4974672;28;20041;-91
2023/04/13 11:00:29;;;;;;;6.75;1.90;;;17.40;99.90;;;;;;4975791;28;20047;-92
2023/04/13 11:02:58;;;;;;;6.38;2.03;;;17.50;99.90;;;;;;4975226;28;20030;-91
2023/04/13 11:05:26;;;;;;;7.25;1.98;;;17.40;99.90;;;;;;4975156;28;20042;-92
2023/04/13 11:07:52;;;;;;;6.57;2.08;;;15.90;99.90;;;;;;4976166;28;20407;-91
2023/04/13 11:10:28;;;;;;;6.75;1.98;;;15.20;99.90;;;;;;4976102;28;20027;-91
2023/04/13 11:12:56;;;;;;;6.05;1.70;;;15.00;99.90;;;;;;4976240;28;20492;-91
2023/04/13 11:15:31;;;;;;;5.95;2.00;;;17.10;99.90;;;;;;4975880;28;20031;-92
2023/04/13 11:17:58;;;;;;;5.97;2.00;;;18.40;99.90;;;;;;4976243;28;20027;-92
2023/04/13 11:20:35;;;;;;;6.95;2.30;;;18.50;99.90;;;;;;4976153;28;20046;-92
2023/04/13 11:23:04;;;;;;;5.07;1.98;;;16.50;99.90;;;;;;4976376;28;20479;-91
2023/04/13 11:25:31;;;;;;;8.10;2.08;;;15.50;99.90;;;;;;4975606;28;20039;-91
2023/04/13 11:27:59;;;;;;;4.50;1.55;;;16.40;99.90;;;;;;4975744;28;20037;-91
2023/04/13 11:30:25;;;;;;;7.88;2.00;;;16.20;99.90;;;;;;4960546;28;20043;-90
2023/04/13 11:32:54;;;;;;;5.78;1.85;;;15.80;99.90;;;;;;4956843;29;20106;-92
2023/04/13 11:35:22;;;;;;;5.15;1.85;;;17.00;99.90;;;;;;4956743;29;20116;-92
2023/04/13 11:37:51;;;;;;;4.50;1.58;;;18.10;99.90;;;;;;4956747;29;20027;-91
2023/04/13 11:40:26;;;;;;;3.95;1.60;;;17.60;99.90;;;;;;4956524;28;20031;-91
2023/04/13 11:42:57;;;;;;;7.68;2.15;;;16.20;99.90;;;;;;4953321;28;20034;-91
2023/04/13 11:45:29;;;;;;;5.80;2.10;;;15.70;99.90;;;;;;4959095;28;20043;-91
2023/04/13 11:47:56;;;;;;;4.65;1.75;;;15.20;99.90;;;;;;4975646;28;20081;-91
2023/04/13 11:50:23;;;;;;;5.78;2.10;;;15.50;99.90;;;;;;4974170;28;20035;-91
2023/04/13 11:52:55;;;;;;;8.73;2.42;;;15.60;99.90;;;;;;4974246;28;20054;-92
2023/04/13 11:55:21;;;;;;;6.35;2.05;;;15.10;99.90;;;;;;4975373;28;20034;-90
2023/04/13 11:57:47;;;;;;;6.22;1.67;;;15.60;99.90;;;;;;4973839;28;20031;-90
2023/04/13 12:00:22;;;;;;;5.97;2.00;;;15.40;99.90;;;;;;4956990;28;20499;-91
2023/04/13 12:02:50;;;;;;;7.75;2.03;;;15.50;99.90;;;;;;4956147;28;20499;-90
2023/04/13 12:05:27;;;;;;;5.80;1.80;;;17.60;99.90;;;;;;4954667;28;20444;-91
2023/04/13 12:07:54;;;;;;;7.28;1.73;;;16.60;99.90;;;;;;4956745;28;20124;-92
2023/04/13 12:10:26;;;;;;;5.35;1.65;;;17.30;99.90;;;;;;4956084;28;20395;-92
2023/04/13 12:12:59;;;;;;;8.25;2.25;;;17.00;99.90;;;;;;4954525;28;20023;-91
2023/04/13 12:15:27;;;;;;;5.97;1.80;;;16.80;99.90;;;;;;4956161;28;20508;-91
2023/04/13 12:17:57;;;;;;;4.50;2.17;;;16.00;99.90;;;;;;4955938;28;20513;-91
2023/04/13 12:20:24;;;;;;;7.95;2.08;;;15.80;99.90;;;;;;4955714;28;20024;-91
2023/04/13 12:22:51;;;;;;;7.55;2.25;;;15.70;99.90;;;;;;4956988;28;20562;-91
2023/04/13 12:25:20;;;;;;;6.07;2.13;;;15.80;99.90;;;;;;4953624;28;20049;-85
2023/04/13 12:27:52;;;;;;;6.38;1.98;;;15.50;99.90;;;;;;4954412;28;20032;-85
2023/04/13 12:30:20;;;;;;;6.72;2.10;;;18.70;99.90;;;;;;4960596;28;20191;-85
2023/04/13 12:32:47;;;;;;;7.22;1.85;;;16.80;99.90;;;;;;4973787;28;20483;-85
2023/04/13 12:35:14;;;;;;;8.07;2.20;;;17.60;99.90;;;;;;4973674;28;20030;-85
2023/04/13 12:37:43;;;;;;;7.25;1.70;;;16.90;99.90;;;;;;4973845;28;20123;-85
2023/04/13 12:40:13;;;;;;;5.13;1.77;;;15.80;99.90;;;;;;4973567;28;20031;-85
2023/04/13 12:42:39;;;;;;;8.18;2.40;;;15.10;99.90;;;;;;4973126;28;20022;-85
2023/04/13 12:45:06;;;;;;;5.30;1.83;;;15.30;99.90;;;;;;4973310;28;20105;-85
2023/04/13 12:47:32;;;;;;;5.22;1.70;;;16.00;99.90;;;;;;4974027;28;20080;-85
2023/04/13 12:49:57;;;;;;;9.32;2.08;;;15.70;99.90;;;;;;4973674;28;20510;-85
2023/04/13 12:52:25;;;;;;;5.57;1.80;;;15.30;99.90;;;;;;4973624;28;20015;-85
2023/04/13 12:54:51;;;;;;;9.88;2.08;;;14.90;99.90;;;;;;4973870;28;20097;-85